Time;durP1;ratioP1;P1;durP2;ratioP2;P2;SDS_P1;SDS_P2;PMS_P1;PMS_P2;Temp;Humidity;BMP_temperature;BMP_pressure;BME280_temperature;BME280_humidity;BME280_pressure;Samples;Min_cycle;Max_cycle;Signal;HPM_P1;HPM_P2
2022/07/08 00:00:49;;;;;;;3.35;1.15;;;12.10;10.00;;;;;;5002107;28;34298;-78
2022/07/08 00:03:15;;;;;;;2.92;1.40;;;12.10;10.10;;;;;;5042087;28;34560;-78
2022/07/08 00:05:41;;;;;;;3.65;1.15;;;12.10;10.10;;;;;;4992140;28;36019;-78
2022/07/08 00:08:07;;;;;;;3.58;1.20;;;12.00;10.10;;;;;;5041887;28;34124;-78
2022/07/08 00:10:33;;;;;;;2.35;1.40;;;12.00;10.10;;;;;;5010106;28;34069;-78
2022/07/08 00:12:59;;;;;;;4.70;1.65;;;12.00;10.20;;;;;;5057261;28;34157;-78
2022/07/08 00:15:25;;;;;;;4.15;1.40;;;11.90;10.30;;;;;;5026710;28;34719;-78
2022/07/08 00:17:51;;;;;;;3.75;1.45;;;11.90;10.30;;;;;;5021181;28;34395;-77
2022/07/08 00:20:17;;;;;;;1.23;1.13;;;11.80;10.30;;;;;;5007814;28;34089;-78
2022/07/08 00:22:43;;;;;;;3.03;1.23;;;11.80;10.30;;;;;;5039414;27;34072;-78
2022/07/08 00:25:09;;;;;;;2.58;1.30;;;11.80;10.30;;;;;;5042200;28;36369;-77
2022/07/08 00:27:35;;;;;;;4.88;1.45;;;11.70;10.50;;;;;;5035637;28;34206;-78
2022/07/08 00:30:01;;;;;;;3.90;1.30;;;11.70;10.50;;;;;;5023796;28;34184;-78
2022/07/08 00:32:27;;;;;;;6.88;1.67;;;11.70;10.50;;;;;;5011141;28;34090;-78
2022/07/08 00:34:53;;;;;;;2.90;1.23;;;11.60;10.50;;;;;;5041518;28;35654;-78
2022/07/08 00:37:19;;;;;;;3.67;1.08;;;11.50;10.50;;;;;;5044581;28;34149;-78
2022/07/08 00:39:45;;;;;;;3.33;1.30;;;11.50;10.50;;;;;;5041128;28;33793;-78
2022/07/08 00:42:11;;;;;;;1.08;1.00;;;11.40;10.50;;;;;;5029416;28;34373;-78
2022/07/08 00:44:37;;;;;;;3.72;1.30;;;11.40;10.70;;;;;;5020114;28;36368;-78
2022/07/08 00:47:03;;;;;;;2.53;1.10;;;11.30;10.80;;;;;;5008546;28;34364;-78
2022/07/08 00:49:29;;;;;;;2.67;1.23;;;11.30;10.80;;;;;;5009801;28;34204;-78
2022/07/08 00:51:57;;;;;;;3.03;1.20;;;11.30;10.90;;;;;;5043524;28;34087;-77
2022/07/08 00:54:24;;;;;;;3.00;1.40;;;11.30;11.00;;;;;;5056079;28;35665;-79
2022/07/08 00:56:50;;;;;;;3.15;1.30;;;11.20;10.90;;;;;;5010456;28;34109;-79
2022/07/08 00:59:16;;;;;;;1.45;1.25;;;11.20;11.10;;;;;;4994492;28;33817;-78
2022/07/08 01:01:42;;;;;;;2.05;1.50;;;11.20;11.10;;;;;;5028070;28;34307;-79
2022/07/08 01:04:08;;;;;;;3.80;1.33;;;11.10;11.10;;;;;;5013672;28;35951;-78
2022/07/08 01:06:34;;;;;;;3.78;1.27;;;11.10;11.20;;;;;;5024840;28;34353;-78
2022/07/08 01:09:01;;;;;;;2.35;1.38;;;11.10;11.10;;;;;;5055592;28;34300;-78
2022/07/08 01:11:27;;;;;;;3.60;1.55;;;11.10;11.20;;;;;;5019206;28;34159;-78
2022/07/08 01:13:54;;;;;;;3.17;1.52;;;11.10;11.30;;;;;;5010674;28;35574;-78
2022/07/08 01:16:20;;;;;;;3.13;1.50;;;11.00;11.20;;;;;;5010223;28;34060;-78
2022/07/08 01:18:46;;;;;;;2.78;1.55;;;11.00;11.30;;;;;;5056825;28;34051;-79
2022/07/08 01:21:12;;;;;;;3.88;1.35;;;11.00;11.30;;;;;;5032828;28;34089;-79
2022/07/08 01:23:38;;;;;;;3.03;1.48;;;11.00;11.40;;;;;;5010430;28;36034;-78
2022/07/08 01:26:11;;;;;;;2.75;1.30;;;10.90;11.50;;;;;;5013625;28;34308;-79
2022/07/08 01:28:39;;;;;;;3.70;1.65;;;11.00;12.00;;;;;;5000664;28;34386;-79
2022/07/08 01:31:05;;;;;;;2.72;1.42;;;10.90;11.50;;;;;;5043091;28;34420;-79
2022/07/08 01:33:31;;;;;;;1.50;1.40;;;10.90;11.50;;;;;;5019079;28;35538;-79
2022/07/08 01:35:57;;;;;;;5.93;1.77;;;10.80;11.40;;;;;;5025980;28;34320;-79
2022/07/08 01:38:23;;;;;;;2.60;1.50;;;10.90;11.60;;;;;;5043605;28;34167;-78
2022/07/08 01:40:50;;;;;;;2.85;1.50;;;10.80;11.60;;;;;;5058458;28;34119;-78
2022/07/08 01:43:16;;;;;;;2.13;1.33;;;10.80;11.60;;;;;;5026824;28;35189;-78
2022/07/08 01:45:42;;;;;;;3.30;1.65;;;10.80;11.70;;;;;;5024189;28;34348;-78
2022/07/08 01:48:08;;;;;;;4.78;1.70;;;10.80;11.60;;;;;;5051073;28;34269;-78
2022/07/08 01:50:34;;;;;;;2.30;1.40;;;10.80;12.20;;;;;;5029054;28;34016;-78
2022/07/08 01:53:00;;;;;;;4.18;1.73;;;10.80;11.80;;;;;;5029065;28;36945;-78
2022/07/08 01:55:26;;;;;;;1.73;1.63;;;10.70;11.80;;;;;;5042845;28;34293;-78
2022/07/08 01:57:52;;;;;;;3.92;1.50;;;10.70;11.90;;;;;;5028938;28;34338;-78
2022/07/08 02:00:19;;;;;;;2.13;1.80;;;10.70;12.00;;;;;;5013038;28;34420;-79
2022/07/08 02:02:45;;;;;;;3.30;1.70;;;10.70;12.00;;;;;;5023203;28;35989;-78
2022/07/08 02:05:11;;;;;;;3.53;1.35;;;10.60;12.00;;;;;;5016591;28;33866;-78
2022/07/08 02:07:38;;;;;;;2.40;1.50;;;10.60;12.10;;;;;;5024534;28;34226;-78
2022/07/08 02:10:05;;;;;;;2.95;1.30;;;10.60;12.10;;;;;;5024236;28;34322;-78
2022/07/08 02:12:31;;;;;;;3.05;1.70;;;10.60;12.10;;;;;;5016215;28;35720;-78
2022/07/08 02:15:01;;;;;;;4.13;1.50;;;10.60;12.20;;;;;;5032923;28;34056;-78
2022/07/08 02:17:30;;;;;;;4.90;1.92;;;10.60;12.20;;;;;;5031259;28;34158;-78
2022/07/08 02:19:56;;;;;;;2.78;1.67;;;10.60;12.40;;;;;;5027517;28;34115;-78
2022/07/08 02:22:23;;;;;;;3.42;1.95;;;10.50;12.20;;;;;;5011864;28;35739;-78
2022/07/08 02:24:49;;;;;;;3.40;1.35;;;10.50;12.20;;;;;;5028775;28;34205;-78
2022/07/08 02:27:16;;;;;;;4.45;1.88;;;10.40;12.20;;;;;;5045505;27;34134;-78
2022/07/08 02:29:42;;;;;;;4.68;1.63;;;10.40;12.20;;;;;;5032386;28;34239;-78
2022/07/08 02:32:08;;;;;;;3.08;1.80;;;10.30;12.20;;;;;;5048992;28;34338;-79
2022/07/08 02:34:34;;;;;;;2.25;1.60;;;10.30;12.30;;;;;;5048013;28;34256;-78
2022/07/08 02:37:00;;;;;;;1.83;1.52;;;10.30;12.30;;;;;;5045243;28;34364;-78
2022/07/08 02:39:26;;;;;;;4.15;2.10;;;10.20;12.40;;;;;;5062903;28;34119;-78
2022/07/08 02:41:52;;;;;;;3.30;1.52;;;10.10;12.40;;;;;;5063106;28;36754;-78
2022/07/08 02:44:18;;;;;;;3.13;1.70;;;10.10;12.50;;;;;;5048603;28;34115;-78
2022/07/08 02:46:45;;;;;;;5.60;1.98;;;10.10;12.60;;;;;;5029907;28;34201;-78
2022/07/08 02:49:12;;;;;;;4.05;2.00;;;10.10;12.50;;;;;;5017239;28;34141;-78
2022/07/08 02:51:38;;;;;;;3.63;1.60;;;10.10;12.60;;;;;;5038865;28;36644;-78
2022/07/08 02:54:05;;;;;;;1.70;1.50;;;10.00;12.50;;;;;;5033649;28;34272;-78
2022/07/08 02:56:32;;;;;;;2.08;1.50;;;10.00;12.60;;;;;;5013182;28;34330;-78
2022/07/08 02:58:59;;;;;;;3.80;1.90;;;10.00;13.10;;;;;;5012416;28;34051;-79
2022/07/08 03:01:25;;;;;;;3.03;1.80;;;9.90;12.70;;;;;;5029557;28;34240;-79
2022/07/08 03:03:51;;;;;;;3.47;1.63;;;9.90;12.80;;;;;;5045138;28;34370;-79
2022/07/08 03:06:17;;;;;;;8.57;1.75;;;9.90;12.80;;;;;;5060980;28;34092;-79
2022/07/08 03:08:43;;;;;;;4.90;1.88;;;9.90;12.70;;;;;;5059217;28;34295;-78
2022/07/08 03:11:09;;;;;;;1.67;1.35;;;9.90;12.90;;;;;;5021141;28;36372;-78
2022/07/08 03:13:36;;;;;;;2.97;2.00;;;9.90;12.80;;;;;;5029134;28;34340;-78
2022/07/08 03:16:03;;;;;;;3.15;1.65;;;9.90;12.90;;;;;;5036118;28;34217;-79
2022/07/08 03:18:30;;;;;;;4.90;1.70;;;9.90;13.00;;;;;;5044958;28;34037;-78
2022/07/08 03:20:56;;;;;;;5.55;1.75;;;9.90;13.00;;;;;;5022699;28;36660;-78
2022/07/08 03:23:23;;;;;;;5.47;1.60;;;9.80;12.90;;;;;;5031059;28;34104;-78
2022/07/08 03:25:48;;;;;;;2.20;1.80;;;9.80;13.00;;;;;;5023217;28;34175;-78
2022/07/08 03:28:15;;;;;;;3.72;1.77;;;9.90;12.90;;;;;;5021988;28;34452;-79
2022/07/08 03:30:41;;;;;;;2.83;1.52;;;9.80;13.00;;;;;;5001994;28;35798;-77
2022/07/08 03:33:07;;;;;;;2.60;1.88;;;9.80;12.90;;;;;;5019603;28;33677;-79
2022/07/08 03:35:33;;;;;;;1.98;1.75;;;9.80;13.00;;;;;;5024030;28;34078;-78
2022/07/08 03:37:59;;;;;;;2.22;1.75;;;9.80;13.00;;;;;;5031465;28;34040;-78
2022/07/08 03:43:06;;;;;;;2.28;1.75;;;9.70;13.00;;;;;;5013398;28;34084;-78
2022/07/08 03:45:32;;;;;;;2.50;1.95;;;9.70;13.10;;;;;;5011970;28;34022;-79
2022/07/08 03:48:00;;;;;;;3.45;1.83;;;9.70;13.10;;;;;;5029378;28;34019;-78
2022/07/08 03:50:27;;;;;;;2.67;1.55;;;9.70;13.10;;;;;;5022758;28;36241;-78
2022/07/08 03:52:53;;;;;;;2.20;2.00;;;9.70;13.10;;;;;;5030592;28;33821;-79
2022/07/08 03:55:22;;;;;;;5.07;1.60;;;9.70;13.10;;;;;;5054475;27;34442;-78
2022/07/08 03:57:48;;;;;;;4.72;1.80;;;9.60;13.00;;;;;;5017391;28;34079;-78
2022/07/08 04:00:14;;;;;;;4.25;1.75;;;9.60;13.00;;;;;;5010853;28;34175;-78
2022/07/08 04:02:40;;;;;;;5.93;2.03;;;9.60;13.00;;;;;;5028331;28;34269;-78
2022/07/08 04:05:07;;;;;;;2.38;1.65;;;9.60;13.10;;;;;;5038721;28;34196;-79
2022/07/08 04:07:33;;;;;;;2.08;1.83;;;9.60;13.10;;;;;;5011480;28;34302;-78
2022/07/08 04:09:59;;;;;;;3.10;1.60;;;9.60;13.30;;;;;;5034390;28;35864;-78
2022/07/08 04:12:25;;;;;;;4.20;1.63;;;9.60;13.30;;;;;;5037504;28;33621;-78
2022/07/08 04:14:51;;;;;;;3.60;1.73;;;9.60;13.30;;;;;;5046223;28;34148;-78
2022/07/08 04:17:17;;;;;;;2.38;1.83;;;9.60;13.30;;;;;;5045853;28;34218;-78
2022/07/08 04:19:43;;;;;;;4.78;2.00;;;9.60;13.40;;;;;;5008934;28;35575;-78
2022/07/08 04:22:09;;;;;;;4.68;2.20;;;9.60;13.40;;;;;;5026396;28;34509;-78
2022/07/08 04:24:35;;;;;;;5.05;1.90;;;9.60;13.40;;;;;;5020368;28;34096;-78
2022/07/08 04:27:01;;;;;;;4.90;2.25;;;9.60;13.40;;;;;;5041392;28;34045;-78
2022/07/08 04:29:26;;;;;;;3.97;1.90;;;9.60;13.60;;;;;;5041083;28;35983;-78
2022/07/08 04:31:52;;;;;;;2.20;2.00;;;9.70;13.50;;;;;;5046112;28;34459;-78
2022/07/08 04:34:18;;;;;;;2.38;2.17;;;9.70;13.60;;;;;;5062066;27;34601;-78
2022/07/08 04:36:44;;;;;;;4.93;1.95;;;9.70;13.60;;;;;;5036604;28;34478;-78
2022/07/08 04:39:10;;;;;;;3.10;1.98;;;9.70;13.60;;;;;;5025592;28;34458;-78
2022/07/08 04:41:37;;;;;;;1.75;1.65;;;9.80;13.70;;;;;;5041049;28;34607;-78
2022/07/08 04:44:03;;;;;;;4.43;1.85;;;9.80;13.60;;;;;;5093227;28;34251;-78
2022/07/08 04:46:29;;;;;;;2.10;1.92;;;9.80;13.60;;;;;;5077102;28;34097;-78
2022/07/08 04:48:55;;;;;;;5.00;2.30;;;9.80;13.60;;;;;;5067511;27;35564;-78
2022/07/08 04:51:22;;;;;;;3.00;1.98;;;9.80;13.60;;;;;;5008135;28;33994;-78
2022/07/08 04:53:48;;;;;;;3.47;2.10;;;9.90;13.70;;;;;;5035896;28;34322;-78
2022/07/08 04:56:14;;;;;;;6.05;2.25;;;9.90;13.80;;;;;;5044548;27;34268;-78
2022/07/08 04:58:40;;;;;;;2.97;2.13;;;10.00;13.60;;;;;;5041065;28;36504;-78
2022/07/08 05:01:06;;;;;;;4.40;1.92;;;10.00;13.60;;;;;;5001635;28;34216;-78
2022/07/08 05:03:32;;;;;;;2.95;2.20;;;10.10;13.70;;;;;;5028352;28;34128;-78
2022/07/08 05:05:58;;;;;;;3.65;2.20;;;10.10;13.80;;;;;;5029075;28;33990;-78
2022/07/08 05:08:24;;;;;;;4.78;1.98;;;10.20;13.80;;;;;;5028015;28;35746;-78
2022/07/08 05:10:50;;;;;;;2.40;2.17;;;10.30;13.90;;;;;;5028755;28;34142;-78
2022/07/08 05:13:16;;;;;;;3.55;1.90;;;10.40;13.80;;;;;;5042837;28;34147;-78
2022/07/08 05:15:43;;;;;;;4.80;2.60;;;10.50;13.80;;;;;;5029470;28;34202;-78
2022/07/08 05:18:10;;;;;;;8.23;2.15;;;10.50;13.80;;;;;;5003731;28;36716;-78
2022/07/08 05:20:36;;;;;;;5.53;2.33;;;10.60;13.80;;;;;;5041706;28;34353;-78
2022/07/08 05:23:03;;;;;;;4.65;2.80;;;10.80;14.00;;;;;;5041915;28;34197;-78
2022/07/08 05:25:29;;;;;;;3.47;2.72;;;11.10;13.90;;;;;;5018562;28;34096;-78
2022/07/08 05:27:55;;;;;;;7.30;3.35;;;11.70;13.50;;;;;;5029092;28;35643;-78
2022/07/08 05:30:21;;;;;;;8.52;3.10;;;12.70;12.30;;;;;;5013892;28;34149;-78
2022/07/08 05:32:47;;;;;;;3.47;2.63;;;13.70;11.10;;;;;;5042396;28;34083;-78
2022/07/08 05:35:13;;;;;;;7.65;2.70;;;14.70;9.50;;;;;;5052689;28;34522;-78
2022/07/08 05:37:39;;;;;;;5.07;2.90;;;15.60;8.10;;;;;;5004497;28;35734;-78
2022/07/08 05:40:09;;;;;;;6.63;2.25;;;16.40;6.90;;;;;;5019070;28;34187;-78
2022/07/08 05:42:36;;;;;;;4.80;2.38;;;17.10;6.00;;;;;;5055330;28;34123;-78
2022/07/08 05:45:02;;;;;;;3.58;2.00;;;17.60;5.70;;;;;;5021575;28;34498;-78
2022/07/08 05:47:28;;;;;;;3.85;2.25;;;18.20;4.60;;;;;;5007287;28;36206;-79
2022/07/08 05:49:54;;;;;;;5.78;2.20;;;18.60;4.10;;;;;;5005860;28;34373;-78
2022/07/08 05:52:20;;;;;;;5.32;2.35;;;19.30;4.00;;;;;;5014108;28;34386;-78
2022/07/08 05:54:46;;;;;;;4.95;2.25;;;19.80;3.10;;;;;;5035661;28;34246;-78
2022/07/08 05:57:13;;;;;;;5.30;2.17;;;20.30;2.70;;;;;;5057931;28;36315;-78
2022/07/08 05:59:39;;;;;;;2.45;2.08;;;20.70;2.10;;;;;;5027857;28;33601;-78
2022/07/08 06:02:05;;;;;;;6.85;2.30;;;21.00;1.80;;;;;;5038040;28;33831;-78
2022/07/08 06:04:31;;;;;;;4.47;1.90;;;21.50;1.70;;;;;;5043578;28;34142;-78
2022/07/08 06:06:58;;;;;;;4.13;2.17;;;21.80;1.00;;;;;;5014921;28;35512;-80
2022/07/08 06:09:24;;;;;;;4.45;1.98;;;22.10;1.00;;;;;;5032911;28;34213;-78
2022/07/08 06:11:50;;;;;;;5.82;2.03;;;22.50;1.00;;;;;;5043974;28;34232;-78
2022/07/08 06:14:17;;;;;;;5.38;2.00;;;22.80;1.00;;;;;;5057181;27;34279;-80
2022/07/08 06:16:43;;;;;;;4.32;2.08;;;23.20;1.00;;;;;;5057338;27;36310;-78
2022/07/08 06:19:09;;;;;;;5.75;1.98;;;23.40;1.00;;;;;;5070225;27;34158;-79
2022/07/08 06:21:35;;;;;;;4.20;2.10;;;23.80;1.00;;;;;;5080436;27;34270;-79
2022/07/08 06:24:02;;;;;;;5.07;1.85;;;24.10;1.00;;;;;;5099804;27;34483;-80
2022/07/08 06:26:29;;;;;;;4.43;1.83;;;24.20;1.00;;;;;;5054435;27;35164;-78
2022/07/08 06:28:55;;;;;;;3.95;1.63;;;24.50;1.00;;;;;;5016670;27;34338;-79
2022/07/08 06:31:21;;;;;;;6.82;1.75;;;24.60;1.00;;;;;;5071877;27;34442;-80
2022/07/08 06:33:47;;;;;;;2.72;1.80;;;24.80;1.00;;;;;;5044188;28;34308;-79
2022/07/08 06:36:13;;;;;;;6.30;2.40;;;25.20;1.00;;;;;;5036435;28;35512;-79
2022/07/08 06:38:39;;;;;;;4.57;1.85;;;25.60;1.00;;;;;;5061632;27;34189;-79
2022/07/08 06:41:04;;;;;;;4.30;2.15;;;25.70;1.00;;;;;;5047676;28;34108;-79
2022/07/08 06:43:30;;;;;;;3.92;2.20;;;26.00;1.00;;;;;;5035040;28;34130;-80
2022/07/08 06:45:56;;;;;;;6.20;2.05;;;26.30;1.00;;;;;;5040489;28;35628;-80
2022/07/08 06:48:22;;;;;;;2.55;1.67;;;26.60;1.00;;;;;;5031597;28;34155;-81
2022/07/08 06:50:48;;;;;;;5.50;1.60;;;27.00;1.00;;;;;;5027858;28;34384;-81
2022/07/08 06:53:14;;;;;;;4.70;1.67;;;27.30;1.00;;;;;;5013492;28;34337;-80
2022/07/08 06:55:40;;;;;;;7.13;2.03;;;27.50;1.00;;;;;;5019941;28;35686;-81
2022/07/08 06:58:06;;;;;;;5.05;1.88;;;27.90;1.00;;;;;;5040732;28;34126;-81
2022/07/08 07:00:32;;;;;;;8.02;2.03;;;28.10;1.00;;;;;;5016491;28;34290;-81
2022/07/08 07:02:58;;;;;;;3.90;1.60;;;28.40;1.00;;;;;;5027489;28;34084;-81
2022/07/08 07:05:24;;;;;;;3.08;1.95;;;28.60;1.00;;;;;;4996215;28;36023;-80
2022/07/08 07:07:50;;;;;;;5.22;1.88;;;28.30;1.00;;;;;;5027128;28;34179;-81
2022/07/08 07:10:16;;;;;;;4.00;1.40;;;27.80;1.00;;;;;;5031638;28;34086;-79
2022/07/08 07:12:42;;;;;;;4.53;1.73;;;27.20;1.00;;;;;;5046011;27;34639;-78
2022/07/08 07:15:08;;;;;;;2.25;1.48;;;26.80;1.00;;;;;;5030497;28;35830;-78
2022/07/08 07:17:34;;;;;;;4.85;1.67;;;26.40;1.00;;;;;;5024566;28;34095;-80
2022/07/08 07:20:00;;;;;;;2.42;1.77;;;26.10;1.00;;;;;;5007393;28;34167;-76
2022/07/08 07:22:26;;;;;;;4.68;2.03;;;25.50;1.00;;;;;;5035790;28;34438;-78
2022/07/08 07:24:52;;;;;;;2.63;1.52;;;25.10;1.00;;;;;;5015904;28;36102;-78
2022/07/08 07:27:18;;;;;;;4.22;1.77;;;25.00;1.00;;;;;;5019111;28;34111;-78
2022/07/08 07:29:44;;;;;;;5.22;1.98;;;25.10;1.00;;;;;;5045540;28;34124;-77
2022/07/08 07:32:10;;;;;;;4.55;1.60;;;25.20;1.00;;;;;;5028292;28;34180;-79
2022/07/08 07:34:36;;;;;;;2.50;1.48;;;25.40;1.00;;;;;;5042862;28;34214;-80
2022/07/08 07:37:02;;;;;;;3.63;1.63;;;25.30;1.00;;;;;;5015300;28;34176;-77
2022/07/08 07:39:28;;;;;;;2.33;1.42;;;25.20;1.00;;;;;;5006478;28;34455;-77
2022/07/08 07:41:53;;;;;;;4.35;1.88;;;25.00;1.00;;;;;;5009692;28;34455;-78
2022/07/08 07:44:19;;;;;;;5.55;1.50;;;24.80;1.00;;;;;;5061953;27;35719;-78
2022/07/08 07:46:45;;;;;;;3.53;1.70;;;24.50;1.00;;;;;;5063467;27;33701;-78
2022/07/08 07:49:13;;;;;;;5.18;1.80;;;24.10;1.00;;;;;;5124087;27;34308;-77
2022/07/08 07:51:39;;;;;;;5.25;1.65;;;23.90;1.00;;;;;;5030950;28;34359;-78
2022/07/08 07:54:05;;;;;;;2.97;1.90;;;23.50;1.00;;;;;;5051764;27;35759;-78
2022/07/08 07:56:32;;;;;;;2.53;1.77;;;23.30;1.00;;;;;;5058093;28;34131;-78
2022/07/08 07:58:58;;;;;;;8.70;1.60;;;23.20;1.00;;;;;;5039767;27;34342;-78
2022/07/08 08:01:24;;;;;;;4.05;1.70;;;23.00;1.00;;;;;;5080928;27;34550;-79
2022/07/08 08:03:50;;;;;;;7.32;1.67;;;22.90;1.00;;;;;;5023939;28;34313;-78
2022/07/08 08:06:18;;;;;;;3.25;2.08;;;22.90;1.00;;;;;;5051968;27;34366;-79
2022/07/08 08:08:44;;;;;;;4.28;1.77;;;23.30;1.00;;;;;;5087806;27;34158;-79
2022/07/08 08:11:10;;;;;;;4.18;1.70;;;23.40;1.00;;;;;;5038685;28;34427;-81
2022/07/08 08:13:36;;;;;;;5.63;1.90;;;23.40;1.00;;;;;;5050145;28;35691;-80
2022/07/08 08:16:02;;;;;;;5.00;1.50;;;23.30;1.00;;;;;;5015635;28;34441;-79
2022/07/08 08:18:28;;;;;;;2.47;1.50;;;23.10;1.00;;;;;;5017406;28;34176;-78
2022/07/08 08:20:54;;;;;;;3.00;1.50;;;22.80;1.00;;;;;;5030760;28;34146;-79
2022/07/08 08:23:20;;;;;;;2.33;1.42;;;22.70;1.00;;;;;;5029286;28;36243;-78
2022/07/08 08:25:46;;;;;;;3.42;1.33;;;22.70;1.00;;;;;;5015399;28;34310;-78
2022/07/08 08:28:12;;;;;;;3.65;1.85;;;22.60;1.00;;;;;;5010532;28;34115;-80
2022/07/08 08:30:38;;;;;;;6.75;1.80;;;22.60;1.00;;;;;;5023411;28;34087;-79
2022/07/08 08:33:04;;;;;;;3.10;1.83;;;22.40;1.00;;;;;;5044280;28;35507;-78
2022/07/08 08:35:30;;;;;;;3.78;1.50;;;22.30;1.00;;;;;;5034857;28;34248;-78
2022/07/08 08:37:56;;;;;;;2.33;1.50;;;22.60;1.00;;;;;;5021014;28;34270;-80
2022/07/08 08:40:22;;;;;;;1.95;1.48;;;23.10;1.00;;;;;;5042497;28;34173;-77
2022/07/08 08:42:48;;;;;;;3.08;1.52;;;23.20;1.00;;;;;;5045392;28;36600;-79
2022/07/08 08:45:14;;;;;;;2.45;1.58;;;23.30;1.00;;;;;;5030827;28;34053;-80
2022/07/08 08:47:40;;;;;;;1.30;1.20;;;23.30;1.00;;;;;;5030611;28;34208;-79
2022/07/08 08:52:52;;;;;;;3.53;1.40;;;23.70;1.00;;;;;;5030214;28;34390;-80
2022/07/08 08:55:28;;;;;;;2.25;1.20;;;23.70;1.00;;;;;;5031196;28;34753;-79
2022/07/08 08:57:57;;;;;;;6.80;1.50;;;23.90;1.00;;;;;;5034930;28;34074;-78
2022/07/08 09:00:25;;;;;;;268.85;41.03;;;24.30;1.00;;;;;;5027969;28;34294;-80
2022/07/08 09:02:53;;;;;;;6.53;2.42;;;24.70;1.00;;;;;;5027778;28;35493;-78
2022/07/08 09:05:21;;;;;;;3.35;1.48;;;25.10;1.00;;;;;;5025071;28;34403;-78
2022/07/08 09:07:47;;;;;;;2.90;1.40;;;25.30;1.00;;;;;;5032030;27;34149;-79
2022/07/08 09:10:15;;;;;;;4.68;1.50;;;25.40;1.00;;;;;;5025597;28;33882;-79
2022/07/08 09:13:11;;;;;;;3.03;1.25;;;25.30;1.00;;;;;;5023278;28;36078;-78
2022/07/08 09:15:41;;;;;;;4.38;1.67;;;25.30;1.00;;;;;;5040224;28;34174;-79
2022/07/08 09:18:12;;;;;;;3.55;1.25;;;25.40;1.00;;;;;;4990124;28;34148;-80
2022/07/08 09:20:43;;;;;;;1.88;1.20;;;25.70;1.00;;;;;;5009878;28;34246;-81
2022/07/08 09:23:12;;;;;;;2.58;1.00;;;26.00;1.00;;;;;;5025375;28;35552;-79
2022/07/08 09:25:38;;;;;;;5.28;1.20;;;26.30;1.00;;;;;;5005413;28;34384;-79
2022/07/08 09:28:04;;;;;;;3.65;1.30;;;26.50;1.00;;;;;;5008338;28;34078;-79
2022/07/08 09:30:30;;;;;;;0.98;0.82;;;26.70;1.00;;;;;;5020512;28;34176;-79
2022/07/08 09:32:59;;;;;;;3.47;1.23;;;26.80;1.00;;;;;;5020914;28;34612;-79
2022/07/08 09:35:35;;;;;;;3.95;1.20;;;27.00;1.00;;;;;;5007262;28;34325;-78
2022/07/08 09:38:03;;;;;;;2.50;1.45;;;27.00;1.00;;;;;;5024248;28;34559;-79
2022/07/08 09:40:29;;;;;;;3.28;1.30;;;27.00;1.00;;;;;;4993529;28;34356;-80
2022/07/08 09:42:55;;;;;;;3.10;1.65;;;27.00;1.00;;;;;;5022285;28;34303;-79
2022/07/08 09:45:29;;;;;;;2.55;1.35;;;27.00;1.00;;;;;;5006033;28;34251;-81
2022/07/08 09:48:04;;;;;;;2.42;1.27;;;27.10;1.00;;;;;;5004006;28;34138;-75
2022/07/08 09:50:42;;;;;;;6.22;1.70;;;27.40;1.00;;;;;;5005714;28;34017;-78
2022/07/08 09:53:20;;;;;;;3.17;1.48;;;27.40;1.00;;;;;;5003156;28;35755;-78
2022/07/08 09:55:51;;;;;;;2.42;1.63;;;27.70;1.00;;;;;;5021298;28;34258;-80
2022/07/08 09:58:20;;;;;;;5.65;1.70;;;27.80;1.00;;;;;;5023083;28;34166;-79
2022/07/08 10:00:48;;;;;;;2.83;1.67;;;27.90;1.00;;;;;;5019918;28;34117;-78
2022/07/08 10:03:14;;;;;;;5.32;1.85;;;28.10;1.00;;;;;;5017764;28;36548;-80
2022/07/08 10:05:41;;;;;;;2.65;1.85;;;28.10;1.00;;;;;;5003871;28;34129;-80
2022/07/08 10:08:09;;;;;;;2.42;1.60;;;28.30;1.00;;;;;;5004076;28;34327;-80
2022/07/08 10:10:37;;;;;;;2.78;1.85;;;28.30;1.00;;;;;;5002230;28;34145;-79
2022/07/08 10:13:04;;;;;;;2.17;1.60;;;28.40;1.00;;;;;;5009729;28;35484;-79
2022/07/08 10:15:33;;;;;;;1.75;1.58;;;28.30;1.00;;;;;;5002314;28;34120;-80
2022/07/08 10:18:07;;;;;;;2.03;1.58;;;28.40;1.00;;;;;;5005896;28;34345;-78
2022/07/08 10:20:35;;;;;;;2.05;1.70;;;28.50;1.00;;;;;;5006012;28;34019;-77
2022/07/08 10:23:15;;;;;;;3.72;1.77;;;28.30;1.00;;;;;;4987285;28;36000;-79
2022/07/08 10:25:42;;;;;;;2.10;1.90;;;28.20;1.00;;;;;;5005203;28;34279;-78
2022/07/08 10:28:10;;;;;;;4.57;1.58;;;28.10;1.00;;;;;;5003102;28;34277;-79
2022/07/08 10:30:51;;;;;;;2.70;1.73;;;27.80;1.00;;;;;;5005349;28;33848;-79
2022/07/08 10:33:23;;;;;;;3.50;1.73;;;27.90;1.00;;;;;;5122631;27;36561;-78
2022/07/08 10:36:05;;;;;;;2.88;1.73;;;27.90;1.00;;;;;;5001070;28;34022;-80
2022/07/08 10:38:35;;;;;;;2.05;1.80;;;28.00;1.00;;;;;;5023532;28;34216;-78
2022/07/08 10:41:04;;;;;;;4.65;2.25;;;27.90;1.00;;;;;;4990683;28;34111;-77
2022/07/08 10:43:30;;;;;;;2.25;1.77;;;28.00;1.00;;;;;;4989327;28;36455;-76
2022/07/08 10:46:00;;;;;;;3.38;1.75;;;28.10;1.00;;;;;;4999725;28;34500;-79
2022/07/08 10:48:44;;;;;;;2.05;1.67;;;28.20;1.00;;;;;;4989823;28;34071;-79
2022/07/08 10:51:45;;;;;;;5.00;1.65;;;28.20;1.00;;;;;;4985988;28;34208;-81
2022/07/08 10:54:25;;;;;;;2.30;1.50;;;28.40;1.00;;;;;;5010718;28;36783;-77
2022/07/08 10:56:58;;;;;;;2.60;1.70;;;28.60;1.00;;;;;;5004204;28;34487;-77
2022/07/08 10:59:39;;;;;;;1.58;1.33;;;28.60;1.00;;;;;;5004802;28;34280;-78
2022/07/08 11:02:16;;;;;;;2.42;1.50;;;28.70;1.00;;;;;;5006630;28;34326;-80
2022/07/08 11:04:47;;;;;;;4.00;1.50;;;28.90;1.00;;;;;;5005335;28;34349;-82
2022/07/08 11:07:26;;;;;;;2.42;1.35;;;29.00;1.00;;;;;;4987928;28;35166;-80
2022/07/08 11:10:02;;;;;;;2.03;1.75;;;29.20;1.00;;;;;;4970458;28;34196;-80
2022/07/08 11:12:34;;;;;;;2.05;1.70;;;29.20;1.00;;;;;;4984236;28;34429;-79
2022/07/08 11:15:03;;;;;;;1.80;1.58;;;29.20;1.00;;;;;;4968211;28;35870;-79
2022/07/08 11:17:31;;;;;;;5.65;1.55;;;29.10;1.00;;;;;;4978703;28;34134;-79
2022/07/08 11:20:00;;;;;;;3.10;1.55;;;29.30;1.00;;;;;;4976077;28;34632;-79
2022/07/08 11:22:27;;;;;;;2.47;1.40;;;29.30;1.00;;;;;;4968356;28;34264;-79
2022/07/08 11:24:55;;;;;;;1.60;1.05;;;29.20;1.00;;;;;;4985282;28;35838;-80
2022/07/08 11:27:26;;;;;;;1.20;1.10;;;29.10;1.00;;;;;;4986640;28;34079;-78
2022/07/08 11:29:53;;;;;;;2.00;1.27;;;29.00;1.00;;;;;;4968660;28;34208;-80
2022/07/08 11:32:21;;;;;;;2.97;1.38;;;29.00;1.00;;;;;;4969451;28;34117;-77
2022/07/08 11:34:48;;;;;;;2.35;1.52;;;29.10;1.00;;;;;;4985326;28;35647;-79
2022/07/08 11:37:15;;;;;;;2.55;1.30;;;29.00;1.00;;;;;;4979546;28;34193;-80
2022/07/08 11:39:43;;;;;;;2.83;1.50;;;29.20;1.00;;;;;;5004396;28;34312;-79
2022/07/08 11:42:10;;;;;;;3.60;1.33;;;29.40;1.00;;;;;;5020594;28;34173;-78
2022/07/08 11:44:36;;;;;;;2.92;1.40;;;29.70;1.00;;;;;;5003510;28;35779;-79
2022/07/08 11:47:03;;;;;;;2.17;1.17;;;29.90;1.00;;;;;;5002939;28;34019;-79
2022/07/08 11:49:29;;;;;;;1.90;1.20;;;29.90;1.00;;;;;;5000822;28;34202;-78
2022/07/08 11:51:57;;;;;;;1.90;1.20;;;29.70;1.00;;;;;;4970011;28;34141;-79
2022/07/08 11:54:24;;;;;;;2.00;1.08;;;29.60;1.00;;;;;;5015944;28;35895;-78
2022/07/08 11:56:54;;;;;;;1.73;1.23;;;29.60;1.00;;;;;;4980995;28;33985;-79
2022/07/08 11:59:24;;;;;;;3.15;1.00;;;29.70;1.00;;;;;;4986220;28;34478;-79
2022/07/08 12:01:52;;;;;;;2.67;1.15;;;29.80;1.00;;;;;;5005160;28;34041;-78
2022/07/08 12:04:18;;;;;;;3.22;1.00;;;29.90;1.00;;;;;;5003513;28;35754;-77
2022/07/08 12:07:01;;;;;;;2.78;1.08;;;30.00;1.00;;;;;;5003703;28;34136;-78
2022/07/08 12:09:28;;;;;;;1.10;1.00;;;30.20;1.00;;;;;;5002875;28;34124;-78
2022/07/08 12:11:56;;;;;;;2.70;1.20;;;30.30;1.00;;;;;;5002948;28;34282;-78
2022/07/08 12:14:23;;;;;;;1.85;1.13;;;30.50;1.00;;;;;;5001329;28;35818;-77
2022/07/08 12:16:52;;;;;;;1.05;0.82;;;30.50;1.00;;;;;;5006962;28;33627;-78
2022/07/08 12:19:31;;;;;;;2.50;0.90;;;30.30;1.00;;;;;;5023916;28;34045;-79
2022/07/08 12:22:00;;;;;;;2.05;0.80;;;30.40;1.00;;;;;;5020874;28;34634;-78
2022/07/08 12:24:32;;;;;;;2.92;1.13;;;30.40;1.00;;;;;;5019463;28;35518;-78
2022/07/08 12:26:59;;;;;;;4.70;1.02;;;30.40;1.00;;;;;;5021867;28;34457;-80
2022/07/08 12:29:32;;;;;;;1.65;1.00;;;30.50;1.00;;;;;;5023398;28;34215;-80
2022/07/08 12:31:58;;;;;;;2.05;0.98;;;30.40;1.00;;;;;;5008106;28;34275;-79
2022/07/08 12:34:25;;;;;;;1.73;0.88;;;30.30;1.00;;;;;;5006171;28;36574;-79
2022/07/08 12:36:52;;;;;;;3.03;1.00;;;30.40;1.00;;;;;;5022479;28;34045;-79
2022/07/08 12:39:20;;;;;;;0.77;0.70;;;30.50;1.00;;;;;;5022980;28;34499;-79
2022/07/08 12:42:05;;;;;;;1.38;0.85;;;30.50;1.00;;;;;;5022400;28;34402;-81
2022/07/08 12:44:35;;;;;;;1.55;0.90;;;30.60;1.00;;;;;;5036466;28;34726;-78
2022/07/08 12:47:03;;;;;;;3.42;1.00;;;30.50;1.00;;;;;;5013482;28;34176;-77
2022/07/08 12:49:31;;;;;;;1.90;0.90;;;30.50;1.00;;;;;;5002326;28;34360;-78
2022/07/08 12:51:58;;;;;;;1.05;0.85;;;30.70;1.00;;;;;;5003211;28;34124;-81
2022/07/08 12:54:25;;;;;;;1.13;1.00;;;30.70;1.00;;;;;;4986673;28;35707;-79
2022/07/08 12:56:52;;;;;;;1.77;1.00;;;30.90;1.00;;;;;;5012503;28;34348;-77
2022/07/08 12:59:18;;;;;;;3.55;1.00;;;31.00;1.00;;;;;;5006054;28;34053;-79